sensor_id;sensor_type;location;lat;lon;timestamp;P1;durP1;ratioP1;P2;durP2;ratioP2
58936;SDS011;44718;52.346;4.970;2023-03-14T12:59:45;7.07;;;0.70;;
58936;SDS011;44718;52.346;4.970;2023-03-14T13:02:22;6.65;;;0.80;;
58936;SDS011;44718;52.346;4.970;2023-03-14T13:04:51;11.77;;;1.48;;
58936;SDS011;44718;52.346;4.970;2023-03-14T13:10:16;6.13;;;0.93;;
58936;SDS011;44718;52.346;4.970;2023-03-14T13:12:47;7.20;;;0.90;;
58936;SDS011;44718;52.346;4.970;2023-03-14T13:15:21;6.80;;;1.05;;
58936;SDS011;44718;52.346;4.970;2023-03-14T13:17:49;9.00;;;1.40;;
58936;SDS011;44718;52.346;4.970;2023-03-14T13:20:26;5.70;;;1.05;;
58936;SDS011;44718;52.346;4.970;2023-03-14T13:22:56;10.95;;;1.20;;
58936;SDS011;44718;52.346;4.970;2023-03-14T13:25:21;11.02;;;1.40;;
58936;SDS011;44718;52.346;4.970;2023-03-14T13:27:48;12.02;;;1.27;;
58936;SDS011;44718;52.346;4.970;2023-03-14T13:30:25;13.98;;;1.42;;
58936;SDS011;44718;52.346;4.970;2023-03-14T13:32:53;11.88;;;1.70;;
58936;SDS011;44718;52.346;4.970;2023-03-14T13:35:26;5.72;;;0.90;;
58936;SDS011;44718;52.346;4.970;2023-03-14T13:37:58;5.30;;;0.88;;
58936;SDS011;44718;52.346;4.970;2023-03-14T13:40:31;6.70;;;0.85;;
58936;SDS011;44718;52.346;4.970;2023-03-14T13:43:23;5.55;;;0.65;;
58936;SDS011;44718;52.346;4.970;2023-03-14T13:48:42;8.57;;;1.40;;
58936;SDS011;44718;52.346;4.970;2023-03-14T13:51:10;4.13;;;1.02;;
58936;SDS011;44718;52.346;4.970;2023-03-14T13:53:44;4.65;;;0.63;;
58936;SDS011;44718;52.346;4.970;2023-03-14T13:56:11;7.57;;;1.10;;
58936;SDS011;44718;52.346;4.970;2023-03-14T13:58:38;7.40;;;1.15;;
58936;SDS011;44718;52.346;4.970;2023-03-14T14:01:12;7.40;;;1.08;;
58936;SDS011;44718;52.346;4.970;2023-03-14T14:03:39;7.53;;;1.00;;
58936;SDS011;44718;52.346;4.970;2023-03-14T14:08:58;6.85;;;1.20;;
58936;SDS011;44718;52.346;4.970;2023-03-14T14:14:11;7.75;;;1.20;;
58936;SDS011;44718;52.346;4.970;2023-03-14T14:16:41;10.00;;;1.50;;
58936;SDS011;44718;52.346;4.970;2023-03-14T14:19:08;11.55;;;1.30;;
58936;SDS011;44718;52.346;4.970;2023-03-14T14:21:34;8.98;;;1.30;;
58936;SDS011;44718;52.346;4.970;2023-03-14T14:23:59;8.27;;;1.33;;
58936;SDS011;44718;52.346;4.970;2023-03-14T14:26:27;6.97;;;1.83;;
58936;SDS011;44718;52.346;4.970;2023-03-14T14:29:04;7.40;;;2.05;;
58936;SDS011;44718;52.346;4.970;2023-03-14T14:31:30;8.80;;;2.33;;
58936;SDS011;44718;52.346;4.970;2023-03-14T14:33:57;14.35;;;2.15;;
58936;SDS011;44718;52.346;4.970;2023-03-14T14:39:17;10.63;;;2.20;;
58936;SDS011;44718;52.346;4.970;2023-03-14T14:41:44;8.93;;;2.47;;
58936;SDS011;44718;52.346;4.970;2023-03-14T14:44:17;7.45;;;1.63;;
58936;SDS011;44718;52.346;4.970;2023-03-14T14:47:03;8.15;;;2.08;;
58936;SDS011;44718;52.346;4.970;2023-03-14T14:49:30;16.77;;;2.63;;
58936;SDS011;44718;52.346;4.970;2023-03-14T14:52:01;9.05;;;1.70;;
58936;SDS011;44718;52.346;4.970;2023-03-14T14:54:36;6.65;;;1.83;;
58936;SDS011;44718;52.346;4.970;2023-03-14T14:57:05;11.90;;;1.92;;
58936;SDS011;44718;52.346;4.970;2023-03-14T14:59:41;8.00;;;1.80;;
58936;SDS011;44718;52.346;4.970;2023-03-14T15:02:09;10.30;;;2.17;;
58936;SDS011;44718;52.346;4.970;2023-03-14T15:05:05;11.30;;;2.63;;
58936;SDS011;44718;52.346;4.970;2023-03-14T15:07:36;15.05;;;3.10;;
58936;SDS011;44718;52.346;4.970;2023-03-14T15:10:02;13.75;;;2.85;;
58936;SDS011;44718;52.346;4.970;2023-03-14T15:12:28;11.05;;;2.15;;
58936;SDS011;44718;52.346;4.970;2023-03-14T15:14:53;12.00;;;1.92;;
58936;SDS011;44718;52.346;4.970;2023-03-14T15:17:22;10.30;;;2.10;;
58936;SDS011;44718;52.346;4.970;2023-03-14T15:19:47;7.30;;;1.85;;
58936;SDS011;44718;52.346;4.970;2023-03-14T15:22:13;16.15;;;2.47;;
58936;SDS011;44718;52.346;4.970;2023-03-14T15:24:39;11.00;;;3.10;;
58936;SDS011;44718;52.346;4.970;2023-03-14T15:27:05;16.17;;;2.83;;
58936;SDS011;44718;52.346;4.970;2023-03-14T15:29:39;14.50;;;2.67;;
58936;SDS011;44718;52.346;4.970;2023-03-14T15:32:13;15.73;;;2.38;;
58936;SDS011;44718;52.346;4.970;2023-03-14T15:34:41;12.73;;;2.75;;
58936;SDS011;44718;52.346;4.970;2023-03-14T15:37:11;11.13;;;1.92;;
58936;SDS011;44718;52.346;4.970;2023-03-14T15:39:37;12.00;;;2.08;;
58936;SDS011;44718;52.346;4.970;2023-03-14T15:42:03;13.70;;;2.30;;
58936;SDS011;44718;52.346;4.970;2023-03-14T15:44:28;11.07;;;2.20;;
58936;SDS011;44718;52.346;4.970;2023-03-14T15:46:53;16.52;;;2.83;;
58936;SDS011;44718;52.346;4.970;2023-03-14T15:49:19;13.95;;;2.92;;
58936;SDS011;44718;52.346;4.970;2023-03-14T15:51:44;10.63;;;2.08;;
58936;SDS011;44718;52.346;4.970;2023-03-14T15:54:09;16.63;;;3.38;;
58936;SDS011;44718;52.346;4.970;2023-03-14T15:56:35;11.18;;;2.47;;
58936;SDS011;44718;52.346;4.970;2023-03-14T15:59:00;10.88;;;2.60;;
58936;SDS011;44718;52.346;4.970;2023-03-14T16:01:26;8.00;;;2.55;;
58936;SDS011;44718;52.346;4.970;2023-03-14T16:03:54;12.57;;;4.85;;
58936;SDS011;44718;52.346;4.970;2023-03-14T16:06:20;7.30;;;1.80;;
58936;SDS011;44718;52.346;4.970;2023-03-14T16:08:46;12.57;;;3.05;;
58936;SDS011;44718;52.346;4.970;2023-03-14T16:11:12;10.73;;;2.85;;
58936;SDS011;44718;52.346;4.970;2023-03-14T16:13:39;11.10;;;2.72;;
58936;SDS011;44718;52.346;4.970;2023-03-14T16:16:05;13.70;;;2.63;;
58936;SDS011;44718;52.346;4.970;2023-03-14T16:18:32;7.88;;;1.90;;
58936;SDS011;44718;52.346;4.970;2023-03-14T16:21:00;16.27;;;3.58;;
58936;SDS011;44718;52.346;4.970;2023-03-14T16:23:29;10.77;;;2.00;;
58936;SDS011;44718;52.346;4.970;2023-03-14T16:25:55;13.77;;;2.40;;
58936;SDS011;44718;52.346;4.970;2023-03-14T16:28:22;9.48;;;2.53;;
58936;SDS011;44718;52.346;4.970;2023-03-14T16:30:47;12.02;;;2.42;;
58936;SDS011;44718;52.346;4.970;2023-03-14T16:33:13;8.38;;;2.33;;
58936;SDS011;44718;52.346;4.970;2023-03-14T16:35:39;12.90;;;2.95;;
58936;SDS011;44718;52.346;4.970;2023-03-14T16:38:05;13.30;;;2.88;;
58936;SDS011;44718;52.346;4.970;2023-03-14T16:40:31;9.75;;;2.67;;
58936;SDS011;44718;52.346;4.970;2023-03-14T16:42:56;10.63;;;3.10;;
58936;SDS011;44718;52.346;4.970;2023-03-14T16:45:22;16.10;;;3.63;;
58936;SDS011;44718;52.346;4.970;2023-03-14T16:47:47;11.85;;;1.65;;
58936;SDS011;44718;52.346;4.970;2023-03-14T16:50:13;11.55;;;2.33;;
58936;SDS011;44718;52.346;4.970;2023-03-14T16:52:38;15.30;;;2.63;;
58936;SDS011;44718;52.346;4.970;2023-03-14T16:55:04;12.18;;;3.35;;
58936;SDS011;44718;52.346;4.970;2023-03-14T16:57:31;14.18;;;2.22;;
58936;SDS011;44718;52.346;4.970;2023-03-14T16:59:57;9.80;;;1.98;;
58936;SDS011;44718;52.346;4.970;2023-03-14T17:02:22;8.80;;;2.38;;
58936;SDS011;44718;52.346;4.970;2023-03-14T17:04:50;15.85;;;2.67;;
58936;SDS011;44718;52.346;4.970;2023-03-14T17:07:16;12.82;;;3.67;;
58936;SDS011;44718;52.346;4.970;2023-03-14T17:09:41;14.13;;;2.55;;
58936;SDS011;44718;52.346;4.970;2023-03-14T17:12:07;12.00;;;2.55;;
58936;SDS011;44718;52.346;4.970;2023-03-14T17:14:32;10.00;;;2.50;;
58936;SDS011;44718;52.346;4.970;2023-03-14T17:16:57;14.38;;;3.13;;
58936;SDS011;44718;52.346;4.970;2023-03-14T17:19:23;15.07;;;3.40;;
58936;SDS011;44718;52.346;4.970;2023-03-14T17:21:48;16.45;;;2.67;;
58936;SDS011;44718;52.346;4.970;2023-03-14T17:24:14;10.80;;;2.85;;
58936;SDS011;44718;52.346;4.970;2023-03-14T17:26:39;12.23;;;2.40;;
58936;SDS011;44718;52.346;4.970;2023-03-14T17:29:04;10.65;;;3.08;;
58936;SDS011;44718;52.346;4.970;2023-03-14T17:31:30;13.90;;;2.95;;
58936;SDS011;44718;52.346;4.970;2023-03-14T17:33:56;8.75;;;2.35;;
58936;SDS011;44718;52.346;4.970;2023-03-14T17:36:22;9.77;;;2.20;;
58936;SDS011;44718;52.346;4.970;2023-03-14T17:38:50;12.00;;;2.40;;
58936;SDS011;44718;52.346;4.970;2023-03-14T17:41:18;9.98;;;2.50;;
58936;SDS011;44718;52.346;4.970;2023-03-14T17:43:43;16.52;;;3.90;;
58936;SDS011;44718;52.346;4.970;2023-03-14T17:46:10;17.20;;;3.60;;
58936;SDS011;44718;52.346;4.970;2023-03-14T17:48:42;11.80;;;3.85;;
58936;SDS011;44718;52.346;4.970;2023-03-14T17:51:08;14.93;;;4.43;;
58936;SDS011;44718;52.346;4.970;2023-03-14T17:53:34;14.85;;;4.25;;
58936;SDS011;44718;52.346;4.970;2023-03-14T17:56:00;14.82;;;3.53;;
58936;SDS011;44718;52.346;4.970;2023-03-14T17:58:25;15.82;;;4.78;;
58936;SDS011;44718;52.346;4.970;2023-03-14T18:00:53;10.93;;;5.05;;
58936;SDS011;44718;52.346;4.970;2023-03-14T18:03:20;14.75;;;5.00;;
58936;SDS011;44718;52.346;4.970;2023-03-14T18:05:46;17.38;;;4.63;;
58936;SDS011;44718;52.346;4.970;2023-03-14T18:08:15;15.38;;;4.63;;
58936;SDS011;44718;52.346;4.970;2023-03-14T18:10:40;15.98;;;4.28;;
58936;SDS011;44718;52.346;4.970;2023-03-14T18:13:06;18.45;;;4.85;;
58936;SDS011;44718;52.346;4.970;2023-03-14T18:15:32;10.45;;;4.03;;
58936;SDS011;44718;52.346;4.970;2023-03-14T18:17:58;16.77;;;4.57;;
58936;SDS011;44718;52.346;4.970;2023-03-14T18:20:26;18.27;;;4.43;;
58936;SDS011;44718;52.346;4.970;2023-03-14T18:22:53;10.38;;;3.28;;
58936;SDS011;44718;52.346;4.970;2023-03-14T18:25:18;12.32;;;2.58;;
58936;SDS011;44718;52.346;4.970;2023-03-14T18:27:44;11.38;;;3.15;;
58936;SDS011;44718;52.346;4.970;2023-03-14T18:30:09;8.40;;;2.60;;
58936;SDS011;44718;52.346;4.970;2023-03-14T18:32:35;15.52;;;3.00;;
58936;SDS011;44718;52.346;4.970;2023-03-14T18:35:01;12.98;;;2.92;;
58936;SDS011;44718;52.346;4.970;2023-03-14T18:37:26;13.45;;;3.28;;
58936;SDS011;44718;52.346;4.970;2023-03-14T18:39:51;16.10;;;4.32;;
58936;SDS011;44718;52.346;4.970;2023-03-14T18:42:17;9.25;;;3.17;;
58936;SDS011;44718;52.346;4.970;2023-03-14T18:44:42;11.63;;;3.33;;
58936;SDS011;44718;52.346;4.970;2023-03-14T18:47:07;13.27;;;2.95;;
58936;SDS011;44718;52.346;4.970;2023-03-14T18:49:33;12.38;;;3.15;;
58936;SDS011;44718;52.346;4.970;2023-03-14T18:51:58;10.43;;;3.97;;
58936;SDS011;44718;52.346;4.970;2023-03-14T18:54:24;16.60;;;3.75;;
58936;SDS011;44718;52.346;4.970;2023-03-14T18:56:49;15.38;;;3.75;;
58936;SDS011;44718;52.346;4.970;2023-03-14T18:59:15;11.65;;;2.90;;
58936;SDS011;44718;52.346;4.970;2023-03-14T19:01:41;15.57;;;3.63;;
58936;SDS011;44718;52.346;4.970;2023-03-14T19:04:07;16.88;;;4.10;;
58936;SDS011;44718;52.346;4.970;2023-03-14T19:06:33;11.43;;;2.83;;
58936;SDS011;44718;52.346;4.970;2023-03-14T19:08:59;15.75;;;3.53;;
58936;SDS011;44718;52.346;4.970;2023-03-14T19:11:25;18.50;;;3.03;;
58936;SDS011;44718;52.346;4.970;2023-03-14T19:13:51;9.57;;;2.63;;
58936;SDS011;44718;52.346;4.970;2023-03-14T19:16:18;16.70;;;3.22;;
58936;SDS011;44718;52.346;4.970;2023-03-14T19:18:46;11.52;;;2.70;;
58936;SDS011;44718;52.346;4.970;2023-03-14T19:21:12;17.40;;;3.55;;
58936;SDS011;44718;52.346;4.970;2023-03-14T19:23:39;17.30;;;3.55;;
58936;SDS011;44718;52.346;4.970;2023-03-14T19:26:06;9.05;;;3.03;;
58936;SDS011;44718;52.346;4.970;2023-03-14T19:28:31;15.75;;;3.22;;
58936;SDS011;44718;52.346;4.970;2023-03-14T19:30:57;12.57;;;2.92;;
58936;SDS011;44718;52.346;4.970;2023-03-14T19:33:23;17.05;;;3.38;;
58936;SDS011;44718;52.346;4.970;2023-03-14T19:35:50;9.85;;;2.25;;
58936;SDS011;44718;52.346;4.970;2023-03-14T19:38:16;11.73;;;2.85;;
58936;SDS011;44718;52.346;4.970;2023-03-14T19:40:42;13.30;;;3.33;;
58936;SDS011;44718;52.346;4.970;2023-03-14T19:43:09;22.80;;;4.82;;
58936;SDS011;44718;52.346;4.970;2023-03-14T19:45:35;15.68;;;3.55;;
58936;SDS011;44718;52.346;4.970;2023-03-14T19:48:01;24.88;;;4.32;;
58936;SDS011;44718;52.346;4.970;2023-03-14T19:50:28;13.40;;;3.53;;
58936;SDS011;44718;52.346;4.970;2023-03-14T19:52:54;14.60;;;3.67;;
58936;SDS011;44718;52.346;4.970;2023-03-14T19:55:20;12.05;;;2.63;;
58936;SDS011;44718;52.346;4.970;2023-03-14T19:57:46;18.30;;;3.45;;
58936;SDS011;44718;52.346;4.970;2023-03-14T20:00:15;12.52;;;3.03;;
58936;SDS011;44718;52.346;4.970;2023-03-14T20:02:41;13.55;;;3.67;;
58936;SDS011;44718;52.346;4.970;2023-03-14T20:05:09;9.98;;;2.97;;
58936;SDS011;44718;52.346;4.970;2023-03-14T20:07:38;15.88;;;3.65;;
58936;SDS011;44718;52.346;4.970;2023-03-14T20:10:11;11.93;;;2.97;;
58936;SDS011;44718;52.346;4.970;2023-03-14T20:12:40;11.02;;;3.05;;
58936;SDS011;44718;52.346;4.970;2023-03-14T20:15:06;11.43;;;2.80;;
58936;SDS011;44718;52.346;4.970;2023-03-14T20:17:32;18.98;;;3.72;;
58936;SDS011;44718;52.346;4.970;2023-03-14T20:20:03;12.60;;;3.15;;
58936;SDS011;44718;52.346;4.970;2023-03-14T20:22:33;14.25;;;2.83;;
58936;SDS011;44718;52.346;4.970;2023-03-14T20:25:18;13.55;;;3.25;;
58936;SDS011;44718;52.346;4.970;2023-03-14T20:27:44;9.02;;;3.13;;
58936;SDS011;44718;52.346;4.970;2023-03-14T20:30:12;10.57;;;3.78;;
58936;SDS011;44718;52.346;4.970;2023-03-14T20:32:39;13.02;;;3.10;;
58936;SDS011;44718;52.346;4.970;2023-03-14T20:35:07;9.30;;;2.00;;
58936;SDS011;44718;52.346;4.970;2023-03-14T20:37:34;8.85;;;2.42;;
58936;SDS011;44718;52.346;4.970;2023-03-14T20:39:59;9.38;;;2.00;;
58936;SDS011;44718;52.346;4.970;2023-03-14T20:42:25;7.88;;;2.75;;
58936;SDS011;44718;52.346;4.970;2023-03-14T20:44:51;11.57;;;2.35;;
58936;SDS011;44718;52.346;4.970;2023-03-14T20:47:18;9.25;;;3.28;;
58936;SDS011;44718;52.346;4.970;2023-03-14T20:49:43;8.07;;;2.25;;
58936;SDS011;44718;52.346;4.970;2023-03-14T20:52:09;10.13;;;2.35;;
58936;SDS011;44718;52.346;4.970;2023-03-14T20:54:36;11.13;;;2.40;;
58936;SDS011;44718;52.346;4.970;2023-03-14T20:57:01;9.48;;;2.30;;
58936;SDS011;44718;52.346;4.970;2023-03-14T20:59:26;8.80;;;2.63;;
58936;SDS011;44718;52.346;4.970;2023-03-14T21:01:52;13.50;;;2.75;;
58936;SDS011;44718;52.346;4.970;2023-03-14T21:04:19;15.23;;;4.15;;
58936;SDS011;44718;52.346;4.970;2023-03-14T21:06:45;23.42;;;8.98;;
58936;SDS011;44718;52.346;4.970;2023-03-14T21:09:10;11.80;;;4.07;;
58936;SDS011;44718;52.346;4.970;2023-03-14T21:11:36;12.27;;;4.95;;
58936;SDS011;44718;52.346;4.970;2023-03-14T21:14:02;16.77;;;5.70;;
58936;SDS011;44718;52.346;4.970;2023-03-14T21:16:28;10.77;;;4.25;;
58936;SDS011;44718;52.346;4.970;2023-03-14T21:18:55;9.52;;;2.30;;
58936;SDS011;44718;52.346;4.970;2023-03-14T21:21:23;14.90;;;2.88;;
58936;SDS011;44718;52.346;4.970;2023-03-14T21:23:48;7.07;;;1.73;;
58936;SDS011;44718;52.346;4.970;2023-03-14T21:26:18;7.00;;;2.13;;
58936;SDS011;44718;52.346;4.970;2023-03-14T21:28:44;8.25;;;1.60;;
58936;SDS011;44718;52.346;4.970;2023-03-14T21:31:10;4.80;;;1.88;;
58936;SDS011;44718;52.346;4.970;2023-03-14T21:33:44;5.93;;;1.70;;
58936;SDS011;44718;52.346;4.970;2023-03-14T21:36:10;11.02;;;2.47;;
58936;SDS011;44718;52.346;4.970;2023-03-14T21:38:36;12.38;;;3.28;;
58936;SDS011;44718;52.346;4.970;2023-03-14T21:41:01;10.63;;;3.83;;
58936;SDS011;44718;52.346;4.970;2023-03-14T21:43:27;8.45;;;2.60;;
58936;SDS011;44718;52.346;4.970;2023-03-14T21:45:53;14.82;;;2.60;;
58936;SDS011;44718;52.346;4.970;2023-03-14T21:48:19;8.65;;;1.80;;
58936;SDS011;44718;52.346;4.970;2023-03-14T21:50:46;6.78;;;1.98;;
58936;SDS011;44718;52.346;4.970;2023-03-14T21:53:12;4.38;;;1.38;;
58936;SDS011;44718;52.346;4.970;2023-03-14T21:55:41;9.15;;;2.13;;
58936;SDS011;44718;52.346;4.970;2023-03-14T21:58:07;5.88;;;1.75;;
58936;SDS011;44718;52.346;4.970;2023-03-14T22:00:33;8.55;;;2.25;;
58936;SDS011;44718;52.346;4.970;2023-03-14T22:02:59;5.57;;;1.73;;
58936;SDS011;44718;52.346;4.970;2023-03-14T22:05:26;9.65;;;2.15;;
58936;SDS011;44718;52.346;4.970;2023-03-14T22:07:51;9.73;;;3.10;;
58936;SDS011;44718;52.346;4.970;2023-03-14T22:10:17;9.30;;;1.75;;
58936;SDS011;44718;52.346;4.970;2023-03-14T22:12:43;7.78;;;2.95;;
58936;SDS011;44718;52.346;4.970;2023-03-14T22:15:08;8.38;;;2.35;;
58936;SDS011;44718;52.346;4.970;2023-03-14T22:17:35;8.35;;;2.30;;
58936;SDS011;44718;52.346;4.970;2023-03-14T22:20:00;9.38;;;4.07;;
58936;SDS011;44718;52.346;4.970;2023-03-14T22:22:26;18.80;;;7.53;;
58936;SDS011;44718;52.346;4.970;2023-03-14T22:24:52;18.85;;;7.47;;
58936;SDS011;44718;52.346;4.970;2023-03-14T22:27:18;13.10;;;3.38;;
58936;SDS011;44718;52.346;4.970;2023-03-14T22:29:44;10.82;;;4.05;;
58936;SDS011;44718;52.346;4.970;2023-03-14T22:32:10;12.15;;;3.88;;
58936;SDS011;44718;52.346;4.970;2023-03-14T22:34:36;16.20;;;4.07;;
58936;SDS011;44718;52.346;4.970;2023-03-14T22:37:02;9.07;;;3.28;;
